Time;durP1;ratioP1;P1;durP2;ratioP2;P2;SDS_P1;SDS_P2;PMS_P1;PMS_P2;Temp;Humidity;BMP_temperature;BMP_pressure;BME280_temperature;BME280_humidity;BME280_pressure;Samples;Min_cycle;Max_cycle;Signal;HPM_P1;HPM_P2
2022/03/11 00:00:32;;;;;;;17.90;9.97;;;3.90;99.80;;;;;;5050416;28;20235;-82
2022/03/11 00:03:00;;;;;;;21.03;10.57;;;3.90;99.90;;;;;;5069659;28;20554;-82
2022/03/11 00:05:28;;;;;;;22.47;11.03;;;4.00;99.90;;;;;;5046691;28;20236;-82
2022/03/11 00:07:55;;;;;;;19.90;10.40;;;4.00;99.90;;;;;;5049427;28;20937;-81
2022/03/11 00:10:22;;;;;;;21.80;10.93;;;4.10;99.90;;;;;;5064749;28;20196;-81
2022/03/11 00:12:49;;;;;;;19.30;10.83;;;4.10;99.90;;;;;;5067069;28;20674;-82
2022/03/11 00:15:16;;;;;;;19.00;10.03;;;4.10;99.90;;;;;;5067852;28;20252;-82
2022/03/11 00:17:43;;;;;;;19.40;10.00;;;4.10;99.90;;;;;;5051898;28;20886;-82
2022/03/11 00:20:10;;;;;;;19.33;10.27;;;4.10;99.90;;;;;;5069151;28;20232;-82
2022/03/11 00:22:37;;;;;;;21.93;10.37;;;4.10;99.90;;;;;;5068419;28;20406;-82
2022/03/11 00:25:04;;;;;;;19.33;10.27;;;4.10;99.90;;;;;;5063285;28;20216;-81
2022/03/11 00:27:31;;;;;;;24.30;10.87;;;4.20;99.90;;;;;;5065816;28;20267;-83
2022/03/11 00:29:59;;;;;;;22.77;10.30;;;4.20;99.90;;;;;;5071669;28;20269;-82
2022/03/11 00:32:26;;;;;;;18.23;10.13;;;4.20;99.90;;;;;;5067428;28;20349;-85
2022/03/11 00:34:54;;;;;;;18.00;9.53;;;4.30;99.90;;;;;;5076042;28;20243;-82
2022/03/11 00:37:20;;;;;;;19.77;11.37;;;4.20;99.90;;;;;;5065825;28;20264;-82
2022/03/11 00:39:47;;;;;;;19.60;10.43;;;4.20;99.90;;;;;;5067684;28;20200;-84
2022/03/11 00:42:14;;;;;;;22.03;10.67;;;4.10;99.90;;;;;;5050226;28;20299;-83
2022/03/11 00:44:41;;;;;;;19.00;9.87;;;4.10;99.90;;;;;;5056663;28;20277;-83
2022/03/11 00:47:09;;;;;;;15.90;10.03;;;4.00;99.90;;;;;;5053946;28;20757;-83
2022/03/11 00:49:37;;;;;;;17.77;10.37;;;4.00;99.90;;;;;;5067453;28;20301;-84
2022/03/11 00:52:04;;;;;;;21.53;10.53;;;3.80;99.90;;;;;;5073641;28;20215;-80
2022/03/11 00:54:31;;;;;;;22.43;10.30;;;3.90;99.90;;;;;;5031706;28;20257;-82
2022/03/11 00:56:58;;;;;;;19.47;10.50;;;3.80;99.90;;;;;;5025881;28;20213;-82
2022/03/11 00:59:25;;;;;;;19.30;9.43;;;3.80;99.90;;;;;;5032297;28;20235;-82
2022/03/11 01:01:52;;;;;;;19.00;10.13;;;3.70;99.90;;;;;;5056961;28;20225;-84
2022/03/11 01:04:19;;;;;;;17.07;10.07;;;3.70;99.90;;;;;;5053666;28;20207;-84
2022/03/11 01:06:46;;;;;;;21.20;10.13;;;3.80;99.90;;;;;;5038304;28;20292;-82
2022/03/11 01:09:13;;;;;;;27.13;10.93;;;3.80;99.90;;;;;;5049734;28;20201;-83
2022/03/11 01:11:40;;;;;;;20.20;10.50;;;3.90;99.90;;;;;;5049278;28;20696;-83
2022/03/11 01:14:07;;;;;;;20.97;10.53;;;3.90;99.90;;;;;;5049690;28;20236;-82
2022/03/11 01:16:34;;;;;;;20.20;10.07;;;4.00;99.90;;;;;;5050127;28;20748;-82
2022/03/11 01:19:03;;;;;;;22.57;10.53;;;4.00;99.90;;;;;;5031822;28;20201;-83
2022/03/11 01:21:30;;;;;;;18.37;10.50;;;4.10;99.90;;;;;;5040179;28;20653;-84
2022/03/11 01:23:59;;;;;;;19.73;9.87;;;4.00;99.90;;;;;;5030098;28;20229;-82
2022/03/11 01:26:26;;;;;;;20.43;10.07;;;4.00;99.90;;;;;;5028163;28;20258;-81
2022/03/11 01:28:54;;;;;;;19.77;11.03;;;4.10;99.90;;;;;;5047669;28;20233;-82
2022/03/11 01:31:20;;;;;;;20.57;10.30;;;4.00;99.90;;;;;;5047904;28;20237;-81
2022/03/11 01:33:48;;;;;;;18.70;10.40;;;4.10;99.90;;;;;;5050636;28;20197;-81
2022/03/11 01:36:15;;;;;;;16.37;10.30;;;4.10;99.90;;;;;;5047278;28;20213;-82
2022/03/11 01:38:43;;;;;;;19.83;10.00;;;4.10;99.90;;;;;;5047924;28;20627;-81
2022/03/11 01:41:10;;;;;;;21.13;10.83;;;4.20;99.90;;;;;;5047094;28;20210;-80
2022/03/11 01:43:59;;;;;;;20.10;10.17;;;4.20;99.90;;;;;;5031959;28;20232;-82
2022/03/11 01:46:28;;;;;;;17.10;10.00;;;4.20;99.90;;;;;;5050652;28;21083;-82
2022/03/11 01:48:59;;;;;;;17.70;10.00;;;4.20;99.90;;;;;;5044631;28;20261;-84
2022/03/11 01:51:27;;;;;;;23.57;10.63;;;4.10;99.90;;;;;;5030823;28;20248;-82
2022/03/11 01:53:54;;;;;;;19.17;11.33;;;4.10;99.90;;;;;;5051047;28;20328;-82
2022/03/11 01:56:22;;;;;;;21.73;12.20;;;4.10;99.90;;;;;;5047599;28;20610;-83
2022/03/11 01:58:52;;;;;;;22.07;11.70;;;4.00;99.90;;;;;;5047644;28;20205;-83
2022/03/11 02:01:19;;;;;;;19.50;11.43;;;4.00;99.90;;;;;;5050022;28;20572;-83
2022/03/11 02:03:47;;;;;;;21.80;10.70;;;4.00;99.90;;;;;;5036341;28;20462;-82
2022/03/11 02:06:14;;;;;;;21.20;10.97;;;3.90;99.90;;;;;;5046314;28;20288;-84
2022/03/11 02:08:42;;;;;;;19.23;11.17;;;3.90;99.90;;;;;;5050555;28;20229;-82
2022/03/11 02:11:11;;;;;;;17.40;9.87;;;3.90;99.90;;;;;;5051053;28;20203;-82
2022/03/11 02:13:49;;;;;;;20.97;11.40;;;3.80;99.90;;;;;;5032334;28;20233;-84
2022/03/11 02:16:29;;;;;;;21.13;10.60;;;3.80;99.90;;;;;;5047338;28;20213;-83
2022/03/11 02:18:57;;;;;;;18.27;10.03;;;3.90;99.90;;;;;;5048265;28;20214;-82
2022/03/11 02:21:26;;;;;;;20.97;10.70;;;3.80;99.90;;;;;;5048074;28;20229;-82
2022/03/11 02:23:55;;;;;;;21.83;10.70;;;3.80;99.90;;;;;;5033140;28;20722;-83
2022/03/11 02:26:24;;;;;;;23.33;11.50;;;3.80;99.90;;;;;;5046021;28;20209;-82
2022/03/11 02:28:53;;;;;;;20.67;11.23;;;3.80;99.90;;;;;;5035192;28;20217;-83
2022/03/11 02:31:22;;;;;;;18.80;10.63;;;3.90;99.90;;;;;;5048947;28;20312;-81
2022/03/11 02:33:49;;;;;;;21.47;10.73;;;3.90;99.90;;;;;;5047969;28;20240;-82
2022/03/11 02:36:17;;;;;;;19.10;10.97;;;3.90;99.90;;;;;;5044029;28;20263;-83
2022/03/11 02:38:44;;;;;;;18.37;10.47;;;3.90;99.90;;;;;;5028870;28;20267;-83
2022/03/11 02:41:11;;;;;;;21.60;11.33;;;3.80;99.90;;;;;;5043445;28;20212;-82
2022/03/11 02:43:41;;;;;;;20.87;10.87;;;3.80;99.90;;;;;;5031838;28;20300;-81
2022/03/11 02:46:09;;;;;;;20.87;11.33;;;3.80;99.90;;;;;;5046923;28;20224;-81
2022/03/11 02:48:37;;;;;;;22.77;11.70;;;3.80;99.90;;;;;;5051927;28;20235;-82
2022/03/11 02:51:05;;;;;;;21.80;11.60;;;3.70;99.90;;;;;;5048429;28;20308;-81
2022/03/11 02:53:32;;;;;;;21.73;11.33;;;3.80;99.90;;;;;;5060192;28;20636;-82
2022/03/11 02:55:59;;;;;;;21.20;10.37;;;3.70;99.90;;;;;;5072344;28;20605;-81
2022/03/11 02:58:26;;;;;;;18.97;10.67;;;3.70;99.90;;;;;;5076972;28;20201;-82
2022/03/11 03:00:53;;;;;;;21.30;11.30;;;3.70;99.90;;;;;;5063812;28;20217;-81
2022/03/11 03:03:20;;;;;;;20.63;10.83;;;3.70;99.90;;;;;;5061500;28;20205;-82
2022/03/11 03:05:47;;;;;;;23.83;11.63;;;3.70;99.90;;;;;;5069799;28;20248;-82
2022/03/11 03:08:14;;;;;;;20.23;10.43;;;3.70;99.90;;;;;;5068181;28;20701;-83
2022/03/11 03:10:41;;;;;;;19.53;10.97;;;3.70;99.90;;;;;;5066161;28;20280;-82
2022/03/11 03:13:08;;;;;;;21.77;11.67;;;3.70;99.90;;;;;;5070942;28;20208;-82
2022/03/11 03:15:34;;;;;;;20.50;10.83;;;3.70;99.90;;;;;;5051701;28;20213;-82
2022/03/11 03:18:01;;;;;;;21.43;10.40;;;3.70;99.90;;;;;;5067341;28;20238;-82
2022/03/11 03:20:28;;;;;;;19.30;11.57;;;3.70;99.90;;;;;;5050898;28;20289;-82
2022/03/11 03:22:55;;;;;;;21.17;10.87;;;3.80;99.90;;;;;;5067212;28;20228;-81
2022/03/11 03:25:22;;;;;;;17.57;10.27;;;3.80;99.90;;;;;;5047373;28;20315;-83
2022/03/11 03:27:48;;;;;;;22.37;11.00;;;3.80;99.90;;;;;;5067237;28;20704;-82
2022/03/11 03:30:15;;;;;;;19.50;10.57;;;3.90;99.90;;;;;;5068525;28;21816;-83
2022/03/11 03:32:42;;;;;;;19.97;10.87;;;3.90;99.90;;;;;;5064005;28;20208;-83
2022/03/11 03:35:11;;;;;;;23.00;11.10;;;3.90;99.90;;;;;;5068559;28;20209;-82
2022/03/11 03:37:39;;;;;;;20.23;10.87;;;3.90;99.90;;;;;;5063378;28;20709;-82
2022/03/11 03:40:08;;;;;;;22.30;11.97;;;4.00;99.90;;;;;;5066357;28;20303;-83
2022/03/11 03:42:35;;;;;;;21.03;10.93;;;3.90;99.90;;;;;;5050953;28;20208;-82
2022/03/11 03:45:03;;;;;;;18.37;10.37;;;3.90;99.90;;;;;;5054241;28;20219;-82
2022/03/11 03:47:30;;;;;;;18.23;10.80;;;4.00;99.90;;;;;;5070763;28;20558;-82
2022/03/11 03:49:57;;;;;;;18.50;10.77;;;3.90;99.90;;;;;;5069807;28;20219;-81
2022/03/11 03:52:24;;;;;;;17.47;10.60;;;3.90;99.90;;;;;;5063838;28;20204;-82
2022/03/11 03:54:51;;;;;;;18.47;9.73;;;3.90;99.90;;;;;;5047341;28;20520;-81
2022/03/11 03:57:17;;;;;;;20.27;9.80;;;3.90;99.90;;;;;;5048964;28;20663;-83
2022/03/11 03:59:44;;;;;;;20.33;10.73;;;3.90;99.90;;;;;;5048421;28;20304;-82
2022/03/11 04:02:11;;;;;;;23.13;11.17;;;3.90;99.90;;;;;;5040909;28;20287;-83
2022/03/11 04:04:38;;;;;;;25.00;11.17;;;3.90;99.90;;;;;;5043187;28;20597;-84
2022/03/11 04:07:05;;;;;;;20.63;11.00;;;3.90;99.90;;;;;;5040390;28;20317;-82
2022/03/11 04:09:32;;;;;;;16.83;10.10;;;3.90;99.90;;;;;;5048659;28;20243;-81
2022/03/11 04:11:59;;;;;;;17.93;9.97;;;3.90;99.90;;;;;;5047080;28;20220;-82
2022/03/11 04:14:27;;;;;;;19.17;9.90;;;3.90;99.90;;;;;;5045189;28;20773;-81
2022/03/11 04:16:55;;;;;;;18.50;10.20;;;3.90;99.90;;;;;;5048478;28;20331;-82
2022/03/11 04:19:22;;;;;;;17.77;10.33;;;4.00;99.90;;;;;;5048275;28;20703;-82
2022/03/11 04:21:49;;;;;;;18.90;10.40;;;4.00;99.90;;;;;;5044851;28;20218;-81
2022/03/11 04:24:17;;;;;;;20.00;9.93;;;4.00;99.90;;;;;;5047389;28;20727;-81
2022/03/11 04:26:44;;;;;;;19.97;10.97;;;4.00;99.90;;;;;;5046460;28;20205;-82
2022/03/11 04:29:12;;;;;;;19.40;10.57;;;4.00;99.90;;;;;;5046217;28;20336;-83
2022/03/11 04:31:40;;;;;;;18.37;10.13;;;3.90;99.90;;;;;;5046197;28;20292;-83
2022/03/11 04:34:07;;;;;;;17.87;9.97;;;3.90;99.90;;;;;;5044202;28;20224;-82
2022/03/11 04:36:38;;;;;;;20.03;11.10;;;3.90;99.90;;;;;;5047034;28;20252;-82
2022/03/11 04:39:07;;;;;;;19.27;10.40;;;3.90;99.90;;;;;;5046836;28;20228;-83
2022/03/11 04:41:35;;;;;;;23.60;10.33;;;4.00;99.90;;;;;;5043661;28;20198;-82
2022/03/11 04:44:03;;;;;;;21.17;9.47;;;3.90;99.90;;;;;;5046655;28;20241;-81
2022/03/11 04:46:30;;;;;;;18.77;10.63;;;3.90;99.90;;;;;;5048215;28;20217;-84
2022/03/11 04:48:57;;;;;;;15.60;9.67;;;3.90;99.90;;;;;;5046003;28;20237;-83
2022/03/11 04:51:25;;;;;;;17.27;9.77;;;3.90;99.90;;;;;;5064477;28;20233;-83
2022/03/11 04:53:52;;;;;;;20.17;10.53;;;3.90;99.90;;;;;;5056809;28;20319;-83
2022/03/11 04:56:19;;;;;;;19.27;10.93;;;3.90;99.90;;;;;;5066437;28;20204;-83
2022/03/11 04:58:46;;;;;;;16.93;9.57;;;3.90;99.90;;;;;;5066126;28;20211;-81
2022/03/11 05:01:13;;;;;;;19.77;10.03;;;3.90;99.90;;;;;;5067832;28;20213;-83
2022/03/11 05:03:40;;;;;;;21.27;10.30;;;3.90;99.90;;;;;;5065266;28;20260;-84
2022/03/11 05:06:10;;;;;;;22.07;10.60;;;3.80;99.90;;;;;;5066761;28;20603;-83
2022/03/11 05:08:37;;;;;;;19.73;9.87;;;3.80;99.90;;;;;;5063873;28;20290;-83
2022/03/11 05:11:05;;;;;;;20.40;10.67;;;3.80;99.90;;;;;;5067939;28;20262;-83
2022/03/11 05:13:32;;;;;;;16.67;10.03;;;3.80;99.90;;;;;;5049499;28;20205;-84
2022/03/11 05:15:59;;;;;;;17.93;9.57;;;3.80;99.90;;;;;;5063054;28;20228;-82
2022/03/11 05:18:26;;;;;;;20.80;10.33;;;3.70;99.90;;;;;;5063106;28;20215;-82
2022/03/11 05:20:53;;;;;;;20.27;10.70;;;3.70;99.90;;;;;;5050866;28;20204;-82
2022/03/11 05:23:21;;;;;;;22.30;10.97;;;3.70;99.90;;;;;;5067764;28;20224;-81
2022/03/11 05:25:48;;;;;;;18.73;10.80;;;3.60;99.90;;;;;;5067489;28;20212;-83
2022/03/11 05:28:15;;;;;;;19.73;10.77;;;3.60;99.90;;;;;;5067400;28;20235;-83
2022/03/11 05:30:42;;;;;;;16.73;10.03;;;3.60;99.90;;;;;;5064592;28;21188;-84
2022/03/11 05:33:15;;;;;;;19.60;10.30;;;3.60;99.90;;;;;;5050726;28;20639;-82
2022/03/11 05:35:41;;;;;;;20.50;9.97;;;3.50;99.90;;;;;;5067861;28;20340;-82
2022/03/11 05:38:08;;;;;;;17.47;10.97;;;3.50;99.90;;;;;;5049366;28;20345;-81
2022/03/11 05:40:35;;;;;;;19.83;10.63;;;3.50;99.90;;;;;;5066470;28;20948;-82
2022/03/11 05:43:03;;;;;;;25.63;11.07;;;3.50;99.90;;;;;;5050275;28;20236;-82
2022/03/11 05:45:30;;;;;;;20.47;11.23;;;3.50;99.90;;;;;;5049706;28;20216;-83
2022/03/11 05:47:57;;;;;;;20.87;11.27;;;3.50;99.90;;;;;;5064276;28;20691;-82
2022/03/11 05:50:24;;;;;;;16.23;9.97;;;3.50;99.90;;;;;;5048298;28;20205;-83
2022/03/11 05:52:51;;;;;;;20.80;10.73;;;3.50;99.90;;;;;;5067885;28;20204;-84
2022/03/11 05:55:17;;;;;;;19.23;10.57;;;3.40;99.90;;;;;;5064448;28;20768;-85
2022/03/11 05:57:44;;;;;;;22.43;11.67;;;3.50;99.90;;;;;;5046760;28;20232;-82
2022/03/11 06:00:12;;;;;;;18.30;10.53;;;3.40;99.90;;;;;;5068025;28;20284;-82
2022/03/11 06:02:39;;;;;;;21.45;13.13;;;3.40;99.90;;;;;;5064434;28;20550;-82
2022/03/11 06:05:10;;;;;;;23.10;11.70;;;3.50;99.90;;;;;;5056256;28;20645;-84
2022/03/11 06:07:39;;;;;;;20.70;10.73;;;3.50;99.90;;;;;;5049578;28;20236;-83
2022/03/11 06:10:06;;;;;;;21.97;10.87;;;3.50;99.90;;;;;;5069879;28;20225;-87
2022/03/11 06:12:33;;;;;;;19.13;10.73;;;3.50;99.90;;;;;;5033391;28;20236;-85
2022/03/11 06:15:05;;;;;;;26.53;11.37;;;3.40;99.90;;;;;;5054513;28;20276;-83
2022/03/11 06:17:31;;;;;;;19.50;10.87;;;3.40;99.90;;;;;;5058843;28;20290;-83
2022/03/11 06:19:59;;;;;;;21.37;10.97;;;3.40;99.90;;;;;;5089026;28;20208;-83
2022/03/11 06:22:27;;;;;;;23.93;11.67;;;3.40;99.90;;;;;;5087638;28;20204;-84
2022/03/11 06:24:55;;;;;;;22.57;10.83;;;3.40;99.90;;;;;;5093288;28;20197;-84
2022/03/11 06:27:24;;;;;;;21.03;11.70;;;3.40;99.90;;;;;;5060270;28;20227;-83
2022/03/11 06:29:52;;;;;;;21.40;11.90;;;3.40;99.90;;;;;;5083437;28;20315;-83
2022/03/11 06:32:19;;;;;;;24.50;11.90;;;3.40;99.90;;;;;;5082484;28;20215;-84
2022/03/11 06:34:48;;;;;;;24.47;11.67;;;3.50;99.90;;;;;;5080620;28;20261;-85
2022/03/11 06:37:16;;;;;;;20.23;10.70;;;3.50;99.90;;;;;;5080504;28;20291;-83
2022/03/11 06:39:43;;;;;;;25.00;11.27;;;3.50;99.90;;;;;;5071149;28;20196;-82
2022/03/11 06:42:09;;;;;;;21.10;10.97;;;3.50;99.90;;;;;;5056810;28;20232;-82
2022/03/11 06:44:36;;;;;;;22.90;10.77;;;3.50;99.90;;;;;;5054236;28;20303;-83
2022/03/11 06:47:03;;;;;;;22.83;11.10;;;3.60;99.90;;;;;;5070598;28;20223;-82
2022/03/11 06:49:30;;;;;;;25.60;11.77;;;3.60;99.90;;;;;;5068688;28;20759;-82
2022/03/11 06:51:57;;;;;;;23.57;11.20;;;3.70;99.90;;;;;;5068806;28;20205;-82
2022/03/11 06:54:24;;;;;;;20.53;11.27;;;3.70;99.90;;;;;;5056524;28;20260;-82
2022/03/11 06:56:50;;;;;;;20.47;11.60;;;3.80;99.90;;;;;;5050439;28;20604;-84
2022/03/11 06:59:17;;;;;;;21.83;11.33;;;3.90;99.90;;;;;;5050664;28;20261;-84
2022/03/11 07:01:44;;;;;;;18.77;10.47;;;4.00;99.90;;;;;;5050432;28;20226;-83
2022/03/11 07:04:11;;;;;;;18.80;10.77;;;4.70;99.90;;;;;;5050674;28;20202;-82
2022/03/11 07:06:38;;;;;;;21.77;10.63;;;5.50;99.90;;;;;;5050986;28;20784;-82
2022/03/11 07:09:05;;;;;;;20.97;11.10;;;6.30;99.90;;;;;;5037246;28;20598;-83
2022/03/11 07:11:32;;;;;;;18.93;10.10;;;7.20;99.90;;;;;;5052500;28;20292;-83
2022/03/11 07:13:59;;;;;;;20.03;10.93;;;7.80;99.90;;;;;;5034197;28;20332;-83
2022/03/11 07:16:26;;;;;;;18.23;10.80;;;8.80;99.90;;;;;;5033439;28;20307;-83
2022/03/11 07:18:53;;;;;;;21.10;10.75;;;9.00;99.90;;;;;;5052763;28;20451;-80
2022/03/11 07:21:20;;;;;;;19.87;11.27;;;9.30;99.90;;;;;;5055713;28;20208;-84
2022/03/11 07:23:51;;;;;;;16.97;10.13;;;9.70;99.90;;;;;;5060405;28;20225;-84
2022/03/11 07:26:21;;;;;;;18.37;9.93;;;10.10;99.90;;;;;;5061096;28;20216;-86
2022/03/11 07:28:48;;;;;;;17.33;10.57;;;10.50;99.90;;;;;;5060765;28;20223;-85
2022/03/11 07:31:15;;;;;;;20.13;11.20;;;10.80;99.90;;;;;;5044776;28;20729;-86
2022/03/11 07:33:42;;;;;;;19.83;10.10;;;11.10;99.90;;;;;;5040172;28;20208;-86
2022/03/11 07:36:09;;;;;;;20.13;11.13;;;11.40;99.90;;;;;;5050766;28;20215;-84
2022/03/11 07:38:36;;;;;;;18.07;10.27;;;11.50;99.90;;;;;;5056760;28;20239;-84
2022/03/11 07:41:03;;;;;;;19.93;10.80;;;11.70;99.90;;;;;;5057463;28;20203;-83
2022/03/11 07:43:30;;;;;;;18.23;10.63;;;11.60;99.90;;;;;;5051304;28;20993;-83
2022/03/11 07:45:58;;;;;;;16.80;10.57;;;11.20;99.90;;;;;;5033951;28;20224;-83
2022/03/11 07:48:24;;;;;;;20.87;11.57;;;10.70;99.40;;;;;;5043546;28;20328;-83
2022/03/11 07:51:04;;;;;;;17.30;10.93;;;10.20;99.40;;;;;;5047583;28;20304;-86
2022/03/11 07:53:32;;;;;;;19.73;11.30;;;9.60;99.60;;;;;;5048762;28;20264;-85
2022/03/11 07:55:59;;;;;;;20.07;11.07;;;9.10;99.90;;;;;;5063397;28;20231;-86
2022/03/11 07:58:26;;;;;;;19.90;10.50;;;8.70;99.90;;;;;;5068264;28;20525;-83
2022/03/11 08:00:53;;;;;;;22.40;11.10;;;8.40;99.90;;;;;;5066595;28;20210;-83
2022/03/11 08:03:21;;;;;;;20.87;11.57;;;8.20;99.90;;;;;;5068184;28;20202;-83
2022/03/11 08:05:49;;;;;;;20.37;11.27;;;8.00;99.90;;;;;;5063554;28;20200;-83
2022/03/11 08:08:16;;;;;;;17.67;10.70;;;7.90;99.90;;;;;;5061013;28;20280;-82
2022/03/11 08:10:43;;;;;;;20.07;11.43;;;7.90;99.90;;;;;;5070157;28;20262;-84
2022/03/11 08:13:30;;;;;;;21.23;11.20;;;7.70;99.90;;;;;;5056692;28;20200;-83
2022/03/11 08:15:57;;;;;;;22.67;11.97;;;7.70;99.90;;;;;;5070253;28;20228;-83
2022/03/11 08:18:24;;;;;;;23.27;11.80;;;7.70;99.90;;;;;;5055106;28;20198;-83
2022/03/11 08:20:51;;;;;;;17.57;11.00;;;7.60;99.90;;;;;;5072516;28;20285;-82
2022/03/11 08:23:17;;;;;;;19.53;11.50;;;7.60;99.90;;;;;;5063788;28;20302;-83
2022/03/11 08:25:45;;;;;;;20.37;11.00;;;7.50;99.90;;;;;;5064936;28;20721;-83
2022/03/11 08:28:13;;;;;;;19.63;12.57;;;7.50;99.90;;;;;;5066372;28;20193;-82
2022/03/11 08:30:41;;;;;;;21.13;11.83;;;7.40;99.90;;;;;;5050439;28;20596;-82
2022/03/11 08:33:10;;;;;;;20.17;11.53;;;7.50;99.90;;;;;;5070394;28;20287;-83
2022/03/11 08:35:57;;;;;;;19.47;10.93;;;7.50;99.90;;;;;;5061482;28;20296;-83
2022/03/11 08:38:36;;;;;;;20.67;11.87;;;7.50;99.90;;;;;;5070355;28;20300;-81
2022/03/11 08:41:06;;;;;;;21.47;11.83;;;7.50;99.90;;;;;;5046331;28;20237;-83
2022/03/11 08:43:35;;;;;;;19.90;12.00;;;7.50;99.90;;;;;;5066931;28;20213;-84
2022/03/11 08:46:01;;;;;;;21.40;11.53;;;7.60;99.90;;;;;;5071978;28;20704;-82
2022/03/11 08:48:28;;;;;;;21.47;11.53;;;7.60;99.90;;;;;;5058686;28;20206;-82
2022/03/11 08:50:56;;;;;;;23.20;11.97;;;7.70;99.90;;;;;;5066867;28;20690;-83
2022/03/11 08:53:22;;;;;;;24.40;12.43;;;7.70;99.90;;;;;;5039611;28;20497;-84
2022/03/11 08:55:49;;;;;;;20.33;11.57;;;7.80;99.90;;;;;;5041869;28;20214;-83
2022/03/11 08:58:20;;;;;;;23.40;12.67;;;7.90;99.90;;;;;;5041890;28;20202;-84
2022/03/11 09:00:46;;;;;;;24.97;12.53;;;8.00;99.90;;;;;;5047784;28;20219;-82
2022/03/11 09:03:13;;;;;;;22.60;12.20;;;8.20;99.90;;;;;;5047742;28;20205;-83
2022/03/11 09:05:42;;;;;;;22.87;12.10;;;8.50;99.90;;;;;;5047154;28;20224;-83
2022/03/11 09:08:09;;;;;;;22.07;12.03;;;8.90;99.90;;;;;;5044836;28;20300;-83
2022/03/11 09:10:36;;;;;;;25.50;12.70;;;9.40;99.90;;;;;;5044855;28;20320;-82
2022/03/11 09:13:03;;;;;;;27.60;12.40;;;9.70;99.90;;;;;;5046486;28;20222;-82
2022/03/11 09:15:31;;;;;;;21.17;13.07;;;10.00;99.90;;;;;;5049660;28;20686;-82
2022/03/11 09:17:59;;;;;;;20.73;12.03;;;10.30;99.60;;;;;;5046048;28;20562;-84
2022/03/11 09:20:26;;;;;;;23.63;12.67;;;10.50;99.20;;;;;;5045221;28;20245;-83
2022/03/11 09:22:59;;;;;;;25.17;12.33;;;10.70;98.50;;;;;;5048901;28;20234;-82
2022/03/11 09:25:26;;;;;;;21.47;12.47;;;10.80;98.30;;;;;;5047060;28;20222;-83
2022/03/11 09:27:53;;;;;;;23.77;13.73;;;11.00;98.00;;;;;;5046751;28;20329;-83
2022/03/11 09:30:20;;;;;;;24.10;13.67;;;11.20;98.00;;;;;;5045590;28;20240;-83
2022/03/11 09:32:47;;;;;;;21.20;12.70;;;11.40;97.90;;;;;;5041243;28;20539;-83
2022/03/11 09:35:15;;;;;;;22.80;13.43;;;11.60;97.20;;;;;;5045407;28;20295;-81
2022/03/11 09:37:42;;;;;;;28.00;15.70;;;11.50;97.40;;;;;;5041895;28;20236;-82
2022/03/11 09:40:12;;;;;;;29.77;15.17;;;11.70;95.80;;;;;;5041853;28;20291;-83
2022/03/11 09:42:39;;;;;;;29.10;15.40;;;11.80;96.20;;;;;;5043870;28;20227;-82
2022/03/11 09:45:06;;;;;;;28.83;15.00;;;11.80;95.60;;;;;;5045842;28;20273;-82
2022/03/11 09:47:34;;;;;;;22.60;13.40;;;11.90;95.30;;;;;;5040185;28;20317;-83
2022/03/11 09:50:01;;;;;;;22.33;13.50;;;11.90;95.10;;;;;;5046450;28;20278;-82
2022/03/11 09:52:31;;;;;;;21.73;12.93;;;12.00;95.00;;;;;;5048283;28;20362;-83
2022/03/11 09:54:58;;;;;;;21.77;13.03;;;12.00;94.70;;;;;;5049542;28;20321;-83
2022/03/11 09:57:27;;;;;;;22.07;13.33;;;12.00;94.70;;;;;;5051057;28;20619;-83
2022/03/11 09:59:54;;;;;;;22.57;13.70;;;12.00;94.70;;;;;;5050642;28;20287;-82
2022/03/11 10:02:25;;;;;;;23.67;12.93;;;12.10;94.60;;;;;;5054647;28;20680;-80
2022/03/11 10:04:57;;;;;;;24.87;13.73;;;12.10;94.70;;;;;;5035804;28;20285;-81
2022/03/11 10:07:44;;;;;;;24.07;14.30;;;12.20;94.80;;;;;;5036809;28;20204;-83
2022/03/11 10:10:20;;;;;;;22.80;13.13;;;12.20;94.40;;;;;;5050482;28;20355;-86
2022/03/11 10:13:10;;;;;;;21.80;12.67;;;12.10;93.50;;;;;;5051224;28;20442;-84
2022/03/11 10:15:40;;;;;;;27.20;14.70;;;11.90;94.00;;;;;;5031849;28;20603;-86
2022/03/11 10:18:13;;;;;;;20.80;14.03;;;11.60;93.70;;;;;;5050615;28;20232;-86
2022/03/11 10:20:41;;;;;;;22.00;14.07;;;11.50;93.70;;;;;;5046643;28;20277;-86
2022/03/11 10:23:10;;;;;;;21.13;13.73;;;11.30;94.30;;;;;;5045425;28;20227;-87
2022/03/11 10:25:37;;;;;;;22.50;13.30;;;11.30;94.30;;;;;;5050488;28;20680;-86
2022/03/11 10:28:05;;;;;;;24.80;13.23;;;11.30;94.60;;;;;;5048565;28;20224;-86
2022/03/11 10:30:38;;;;;;;24.30;14.23;;;11.30;94.30;;;;;;5049421;28;20235;-86
2022/03/11 10:33:08;;;;;;;22.40;12.50;;;11.20;94.30;;;;;;5047433;28;20567;-85
2022/03/11 10:35:45;;;;;;;22.50;13.77;;;11.20;94.40;;;;;;5031791;28;20237;-86
2022/03/11 10:38:15;;;;;;;26.67;13.37;;;11.20;94.60;;;;;;5035543;28;20203;-86
2022/03/11 10:40:59;;;;;;;25.53;14.73;;;11.20;94.80;;;;;;5042317;28;20212;-87
2022/03/11 10:43:31;;;;;;;23.37;13.57;;;11.20;94.70;;;;;;5049019;28;20256;-86
2022/03/11 10:46:01;;;;;;;25.20;13.53;;;11.20;94.60;;;;;;5033841;28;20220;-85
2022/03/11 10:48:48;;;;;;;24.60;12.80;;;11.20;94.60;;;;;;5047270;28;20202;-86
2022/03/11 10:51:26;;;;;;;23.70;13.90;;;11.20;94.70;;;;;;5049752;28;20234;-87
2022/03/11 10:53:57;;;;;;;22.20;13.23;;;11.30;94.90;;;;;;5051319;28;20624;-85
2022/03/11 10:56:26;;;;;;;22.53;13.27;;;11.40;94.80;;;;;;5045488;28;20216;-85
2022/03/11 10:58:53;;;;;;;22.33;13.73;;;11.50;94.80;;;;;;5051639;28;20655;-86
2022/03/11 11:01:43;;;;;;;24.47;13.90;;;11.60;95.00;;;;;;5056403;28;20692;-86
2022/03/11 11:04:13;;;;;;;22.13;12.93;;;11.70;94.60;;;;;;5050172;28;20227;-87
2022/03/11 11:06:41;;;;;;;26.63;14.60;;;11.80;94.10;;;;;;5046476;28;20212;-87
2022/03/11 11:09:09;;;;;;;26.87;14.77;;;11.90;94.30;;;;;;5048294;28;20684;-85
2022/03/11 11:11:37;;;;;;;24.67;14.50;;;12.00;94.30;;;;;;5053672;28;20560;-85
2022/03/11 11:14:07;;;;;;;26.80;13.77;;;12.10;94.60;;;;;;5050962;28;20211;-86
2022/03/11 11:16:39;;;;;;;24.13;13.43;;;12.20;94.40;;;;;;5049061;28;20218;-86
2022/03/11 11:19:09;;;;;;;26.23;13.77;;;12.40;94.40;;;;;;5027695;28;20243;-86
2022/03/11 11:21:39;;;;;;;24.00;13.50;;;12.50;94.10;;;;;;5045871;28;20236;-87
2022/03/11 11:24:20;;;;;;;23.33;13.27;;;12.60;94.00;;;;;;5052513;28;20291;-87
2022/03/11 11:26:49;;;;;;;22.63;13.27;;;12.70;93.30;;;;;;5052413;28;20199;-87
2022/03/11 11:29:20;;;;;;;22.33;13.57;;;12.70;93.40;;;;;;5053117;28;20588;-87
2022/03/11 11:31:47;;;;;;;26.83;13.00;;;12.80;93.20;;;;;;5050677;28;20237;-87
2022/03/11 11:34:31;;;;;;;24.17;13.47;;;12.90;93.40;;;;;;5048948;28;20224;-88
2022/03/11 11:36:59;;;;;;;23.57;13.50;;;13.00;93.00;;;;;;5043822;28;20669;-87
2022/03/11 11:39:34;;;;;;;24.23;13.20;;;13.00;93.10;;;;;;5050136;28;20285;-86
2022/03/11 11:42:08;;;;;;;23.10;12.67;;;13.20;93.10;;;;;;5045892;28;20684;-87
2022/03/11 11:44:42;;;;;;;24.53;14.10;;;13.30;92.80;;;;;;5047374;28;20240;-86
2022/03/11 11:47:11;;;;;;;25.63;14.40;;;13.40;92.70;;;;;;5049596;28;20575;-88
2022/03/11 11:49:42;;;;;;;21.87;14.23;;;13.50;92.50;;;;;;5048816;28;20306;-88
2022/03/11 11:52:12;;;;;;;27.20;14.40;;;13.50;92.20;;;;;;5045220;28;20197;-87
2022/03/11 11:54:41;;;;;;;23.57;14.03;;;13.60;92.40;;;;;;5069124;28;20345;-86
2022/03/11 11:57:14;;;;;;;25.13;14.20;;;13.80;92.30;;;;;;5064936;28;20339;-87
2022/03/11 11:59:42;;;;;;;22.57;14.07;;;13.90;92.00;;;;;;5067514;28;20202;-87
2022/03/11 12:02:32;;;;;;;21.53;13.60;;;13.90;91.80;;;;;;5072607;28;20224;-87
2022/03/11 12:05:00;;;;;;;22.77;13.80;;;13.90;91.60;;;;;;5074871;28;20200;-85
2022/03/11 12:07:48;;;;;;;23.03;13.63;;;13.90;91.50;;;;;;5057645;28;20209;-88
2022/03/11 12:10:26;;;;;;;24.90;13.80;;;13.90;91.20;;;;;;5080954;28;20258;-86
2022/03/11 12:12:54;;;;;;;25.80;14.00;;;14.00;91.40;;;;;;5071662;28;20669;-87
2022/03/11 12:15:23;;;;;;;23.50;14.10;;;14.10;91.40;;;;;;5066307;28;20224;-86
2022/03/11 12:17:59;;;;;;;26.67;14.53;;;14.20;91.40;;;;;;5072383;28;20232;-89
2022/03/11 12:20:34;;;;;;;23.07;14.17;;;14.30;91.20;;;;;;5069272;28;20804;-86
2022/03/11 12:23:12;;;;;;;25.17;14.07;;;14.40;90.80;;;;;;5066563;28;20239;-88
2022/03/11 12:25:49;;;;;;;26.30;15.20;;;14.50;90.50;;;;;;5062066;28;20295;-87
2022/03/11 12:28:28;;;;;;;26.90;13.83;;;14.50;90.30;;;;;;5064968;28;20200;-87
2022/03/11 12:30:59;;;;;;;34.03;14.90;;;14.60;90.40;;;;;;5072858;28;20228;-88
2022/03/11 12:33:42;;;;;;;21.47;13.20;;;14.70;90.30;;;;;;5068015;28;20306;-85
2022/03/11 12:36:17;;;;;;;25.83;14.00;;;14.70;89.70;;;;;;5072825;28;20261;-87
2022/03/11 12:38:44;;;;;;;23.33;13.90;;;14.60;89.70;;;;;;5059893;28;20341;-87
2022/03/11 12:41:34;;;;;;;21.43;13.60;;;14.60;89.90;;;;;;5064513;28;20291;-87
2022/03/11 12:44:01;;;;;;;20.80;13.90;;;14.60;89.70;;;;;;5065348;28;20570;-88